createdAt,value
2023-11-11T00:01:17.106Z,95.14
2023-11-11T00:03:45.082Z,94.73
2023-11-11T00:06:14.412Z,94.17
2023-11-11T00:08:42.192Z,94.39
2023-11-11T00:11:10.139Z,94.51
2023-11-11T00:13:38.043Z,94.51
2023-11-11T00:16:06.896Z,93.98
2023-11-11T00:18:38.040Z,93.61
2023-11-11T00:21:06.874Z,93.75
2023-11-11T00:23:38.521Z,93.90
2023-11-11T00:26:06.413Z,94.61
2023-11-11T00:28:34.503Z,94.30
2023-11-11T00:31:02.333Z,93.88
2023-11-11T00:33:30.512Z,93.80
2023-11-11T00:35:58.309Z,93.80
2023-11-11T00:38:27.210Z,93.09
2023-11-11T00:40:56.371Z,93.39
2023-11-11T00:43:24.214Z,93.57
2023-11-11T00:45:54.336Z,92.66
2023-11-11T00:48:22.237Z,92.98
2023-11-11T00:50:50.084Z,93.36
2023-11-11T00:53:17.835Z,93.22
2023-11-11T00:55:45.887Z,93.40
2023-11-11T00:58:16.144Z,93.48
2023-11-11T01:00:44.871Z,92.94
2023-11-11T01:03:13.968Z,93.10
2023-11-11T01:05:42.695Z,92.55
2023-11-11T01:08:10.871Z,92.54
2023-11-11T01:10:41.787Z,92.65
2023-11-11T01:13:10.545Z,93.03
2023-11-11T01:15:39.900Z,92.89
2023-11-11T01:18:08.135Z,92.14
2023-11-11T01:20:36.105Z,91.88
2023-11-11T01:23:04.410Z,91.94
2023-11-11T01:25:33.451Z,92.03
2023-11-11T01:28:01.949Z,91.64
2023-11-11T01:30:30.151Z,91.67
2023-11-11T01:32:59.437Z,92.27
2023-11-11T01:35:27.277Z,91.55
2023-11-11T01:37:55.049Z,91.71
2023-11-11T01:40:23.390Z,91.88
2023-11-11T01:42:51.465Z,91.84
2023-11-11T01:45:19.727Z,91.96
2023-11-11T01:47:47.956Z,92.00
2023-11-11T01:50:18.282Z,92.18
2023-11-11T01:52:47.431Z,91.69
2023-11-11T01:55:15.444Z,92.40
2023-11-11T01:57:43.327Z,92.09
2023-11-11T02:00:14.257Z,92.05
2023-11-11T02:02:42.474Z,91.87
2023-11-11T02:05:10.408Z,91.56
2023-11-11T02:07:41.690Z,91.50
2023-11-11T02:10:11.173Z,91.08
2023-11-11T02:12:39.267Z,90.75
2023-11-11T02:15:09.819Z,90.98
2023-11-11T02:17:37.767Z,90.79
2023-11-11T02:20:07.037Z,90.47
2023-11-11T02:22:34.881Z,90.46
2023-11-11T02:25:08.032Z,90.04
2023-11-11T02:27:35.876Z,90.78
2023-11-11T02:30:05.398Z,90.78
2023-11-11T02:32:34.005Z,90.67
2023-11-11T02:35:01.752Z,90.98
2023-11-11T02:37:29.719Z,90.86
2023-11-11T02:39:57.490Z,90.83
2023-11-11T02:42:26.768Z,91.83
2023-11-11T02:44:54.806Z,91.67
2023-11-11T02:47:22.690Z,91.78
2023-11-11T02:49:50.562Z,91.73
2023-11-11T02:52:18.360Z,91.53
2023-11-11T02:54:47.026Z,92.03
2023-11-11T02:57:14.872Z,92.20
2023-11-11T02:59:44.215Z,90.97
2023-11-11T03:02:12.490Z,92.20
2023-11-11T03:04:40.476Z,92.26
2023-11-11T03:07:08.416Z,92.82
2023-11-11T03:09:36.307Z,93.45
2023-11-11T03:12:04.642Z,93.28
2023-11-11T03:14:32.580Z,93.02
2023-11-11T03:17:02.203Z,93.20
2023-11-11T03:19:31.378Z,93.67
2023-11-11T03:21:59.554Z,92.46
2023-11-11T03:24:27.507Z,92.27
2023-11-11T03:26:55.484Z,92.90
2023-11-11T03:29:23.438Z,92.69
2023-11-11T03:31:51.322Z,92.30
2023-11-11T03:34:20.507Z,92.62
2023-11-11T03:36:48.502Z,92.79
2023-11-11T03:39:18.149Z,92.52
2023-11-11T03:41:46.062Z,92.66
2023-11-11T03:44:14.936Z,92.77
2023-11-11T03:46:42.757Z,92.58
2023-11-11T03:49:10.662Z,93.47
2023-11-11T03:51:39.783Z,93.38
2023-11-11T03:54:08.130Z,93.40
2023-11-11T03:56:36.032Z,93.59
2023-11-11T03:59:04.349Z,93.31
2023-11-11T04:01:35.831Z,93.06
2023-11-11T04:04:04.204Z,92.68
2023-11-11T04:06:32.163Z,92.97
2023-11-11T04:09:01.289Z,93.56
2023-11-11T04:11:29.375Z,93.08
2023-11-11T04:14:00.286Z,93.47
2023-11-11T04:16:30.899Z,93.54
2023-11-11T04:18:58.916Z,93.19
2023-11-11T04:21:27.264Z,93.17
2023-11-11T04:23:55.657Z,93.23
2023-11-11T04:26:24.963Z,93.73
2023-11-11T04:28:52.797Z,93.00
2023-11-11T04:31:21.933Z,94.62
2023-11-11T04:33:49.988Z,93.59
2023-11-11T04:36:18.464Z,92.16
2023-11-11T04:38:46.472Z,92.53
2023-11-11T04:41:14.894Z,92.85
2023-11-11T04:43:44.184Z,93.28
2023-11-11T04:46:12.389Z,92.99
2023-11-11T04:48:40.355Z,93.59
2023-11-11T04:51:08.251Z,92.16
2023-11-11T04:53:36.037Z,93.31
2023-11-11T04:56:04.354Z,92.38
2023-11-11T04:58:32.391Z,93.24
2023-11-11T05:01:01.509Z,93.13
2023-11-11T05:03:29.437Z,93.32
2023-11-11T05:05:57.421Z,93.83
2023-11-11T05:08:25.232Z,93.97
2023-11-11T05:10:53.877Z,93.79
2023-11-11T05:13:22.405Z,93.98
2023-11-11T05:16:00.525Z,94.25
2023-11-11T05:18:34.118Z,94.26
2023-11-11T05:21:02.350Z,94.58
2023-11-11T05:23:33.203Z,94.72
2023-11-11T05:26:01.015Z,95.27
2023-11-11T05:28:28.785Z,94.62
2023-11-11T05:30:56.610Z,94.91
2023-11-11T05:33:24.457Z,95.61
2023-11-11T05:35:53.956Z,95.85
2023-11-11T05:38:21.839Z,95.88
2023-11-11T05:40:50.386Z,95.88
2023-11-11T05:43:18.143Z,96.44
2023-11-11T05:45:46.013Z,95.27
2023-11-11T05:48:14.144Z,95.83
2023-11-11T05:50:41.990Z,95.96
2023-11-11T05:53:11.205Z,96.27
2023-11-11T05:55:38.969Z,96.31
2023-11-11T05:58:06.820Z,96.62
2023-11-11T06:00:34.682Z,96.51
2023-11-11T06:03:02.820Z,96.42
2023-11-11T06:05:30.862Z,96.58
2023-11-11T06:07:58.773Z,96.61
2023-11-11T06:10:28.144Z,97.53
2023-11-11T06:12:56.593Z,97.28
2023-11-11T06:15:23.766Z,96.53
2023-11-11T06:17:51.734Z,97.10
2023-11-11T06:20:20.453Z,97.06
2023-11-11T06:23:45.423Z,96.55
2023-11-11T06:25:40.075Z,97.15
2023-11-11T06:28:08.663Z,96.94
2023-11-11T06:30:36.549Z,97.02
2023-11-11T06:33:04.736Z,97.43
2023-11-11T06:35:33.547Z,96.97
2023-11-11T06:38:01.462Z,97.17
2023-11-11T06:40:29.537Z,96.91
2023-11-11T06:42:58.781Z,96.92
2023-11-11T06:45:26.840Z,97.19
2023-11-11T06:47:54.990Z,97.35
2023-11-11T06:50:24.756Z,97.68
2023-11-11T06:52:52.692Z,97.55
2023-11-11T06:55:20.873Z,97.42
2023-11-11T06:57:48.756Z,97.30
2023-11-11T07:00:20.217Z,97.51
2023-11-11T07:02:48.692Z,97.99
2023-11-11T07:05:16.704Z,97.86
2023-11-11T07:07:44.469Z,97.61
2023-11-11T07:10:13.419Z,97.26
2023-11-11T07:12:41.461Z,97.44
2023-11-11T07:15:11.695Z,97.85
2023-11-11T07:17:42.786Z,98.16
2023-11-11T07:20:13.525Z,97.72
2023-11-11T07:22:41.513Z,98.11
2023-11-11T07:25:10.459Z,98.17
2023-11-11T07:27:38.513Z,98.02
2023-11-11T07:30:11.215Z,98.35
2023-11-11T07:32:50.221Z,98.66
2023-11-11T07:35:24.810Z,98.85
2023-11-11T07:37:53.921Z,98.88
2023-11-11T07:40:21.790Z,98.90
2023-11-11T07:42:52.290Z,99.05
2023-11-11T07:45:24.626Z,99.05
2023-11-11T07:47:54.543Z,98.63
2023-11-11T07:50:23.351Z,98.98
2023-11-11T07:52:52.293Z,98.64
2023-11-11T07:55:20.319Z,99.05
2023-11-11T08:00:20.666Z,99.57
2023-11-11T08:02:49.126Z,99.11
2023-11-11T08:05:18.947Z,99.04
2023-11-11T08:07:46.999Z,99.37
2023-11-11T08:10:14.928Z,99.92
2023-11-11T08:12:42.969Z,98.98
2023-11-11T08:15:12.143Z,99.84
2023-11-11T08:17:40.064Z,100.00
2023-11-11T08:20:12.711Z,100.00
2023-11-11T08:22:42.013Z,99.70
2023-11-11T08:25:12.993Z,100.00
2023-11-11T08:27:41.487Z,99.83
2023-11-11T08:30:11.424Z,99.75
2023-11-11T08:32:41.153Z,99.46
2023-11-11T08:35:10.171Z,99.23
2023-11-11T08:37:38.767Z,98.86
2023-11-11T08:40:11.745Z,98.98
2023-11-11T08:42:40.648Z,98.40
2023-11-11T08:45:11.291Z,98.31
2023-11-11T08:47:40.422Z,97.84
2023-11-11T08:50:11.368Z,97.96
2023-11-11T08:52:40.106Z,98.22
2023-11-11T08:55:10.285Z,97.64
2023-11-11T08:57:38.287Z,97.40
2023-11-11T09:00:11.081Z,97.65
2023-11-11T09:02:39.234Z,97.66
2023-11-11T09:05:08.012Z,98.04
2023-11-11T09:07:36.183Z,98.02
2023-11-11T09:10:05.988Z,97.63
2023-11-11T09:12:40.426Z,98.27
2023-11-11T09:15:10.375Z,97.72
2023-11-11T09:17:38.364Z,96.80
2023-11-11T09:20:10.239Z,97.37
2023-11-11T09:22:38.304Z,97.06
2023-11-11T09:25:07.648Z,97.44
2023-11-11T09:27:37.191Z,96.84
2023-11-11T09:30:06.976Z,96.75
2023-11-11T09:32:34.949Z,95.69
2023-11-11T09:35:04.210Z,96.19
2023-11-11T09:37:34.876Z,95.77
2023-11-11T09:40:07.751Z,95.50
2023-11-11T09:42:38.427Z,95.58
2023-11-11T09:47:42.660Z,94.71
2023-11-11T09:50:12.424Z,95.36
2023-11-11T09:52:41.167Z,94.74
2023-11-11T09:55:11.030Z,94.88
2023-11-11T09:57:41.921Z,95.43
2023-11-11T10:00:13.122Z,95.25
2023-11-11T10:02:41.183Z,95.60
2023-11-11T10:05:10.756Z,95.61
2023-11-11T10:07:39.153Z,94.21
2023-11-11T10:10:10.340Z,95.35
2023-11-11T10:12:41.366Z,94.39
2023-11-11T10:15:11.728Z,95.65
2023-11-11T10:17:41.198Z,96.76
2023-11-11T10:20:15.515Z,97.54
2023-11-11T10:22:46.023Z,97.29
2023-11-11T10:25:15.801Z,97.09
2023-11-11T10:27:51.001Z,96.54
2023-11-11T10:30:20.604Z,96.60
2023-11-11T10:32:50.871Z,97.24
2023-11-11T10:35:19.188Z,97.06
2023-11-11T10:37:50.546Z,96.71
2023-11-11T10:40:19.885Z,96.35
2023-11-11T10:42:50.479Z,95.65
2023-11-11T10:45:18.920Z,96.57
2023-11-11T10:47:48.131Z,97.16
2023-11-11T10:50:17.105Z,96.74
2023-11-11T10:52:45.551Z,97.03
2023-11-11T10:55:14.623Z,98.43
2023-11-11T10:57:43.884Z,98.59
2023-11-11T11:00:21.731Z,99.18
2023-11-11T11:02:53.614Z,99.61
2023-11-11T11:05:31.231Z,100.00
2023-11-11T11:08:07.946Z,99.88
2023-11-11T11:10:46.358Z,98.92
2023-11-11T11:13:17.388Z,100.00
2023-11-11T11:15:47.118Z,99.38
2023-11-11T11:18:23.794Z,98.50
2023-11-11T11:20:54.646Z,98.30
2023-11-11T11:23:23.420Z,98.37
2023-11-11T11:25:53.013Z,97.92
2023-11-11T11:28:26.972Z,98.12
2023-11-11T11:31:00.566Z,97.85
2023-11-11T11:33:30.223Z,98.37
2023-11-11T11:36:05.367Z,98.80
2023-11-11T11:38:35.303Z,98.17
2023-11-11T11:41:07.212Z,98.48
2023-11-11T11:43:36.226Z,98.06
2023-11-11T11:46:06.435Z,97.35
2023-11-11T11:48:35.289Z,97.53
2023-11-11T11:51:11.456Z,97.70
2023-11-11T11:53:42.633Z,97.46
2023-11-11T11:56:15.537Z,97.08
2023-11-11T11:58:48.702Z,97.17
2023-11-11T12:01:29.226Z,96.94
2023-11-11T12:03:58.237Z,96.89
2023-11-11T12:06:27.612Z,96.84
2023-11-11T12:08:57.276Z,96.99
2023-11-11T12:11:26.932Z,96.90
2023-11-11T12:13:55.616Z,96.37
2023-11-11T12:16:39.729Z,96.45
2023-11-11T12:19:15.101Z,96.31
2023-11-11T12:21:45.349Z,95.47
2023-11-11T12:24:14.570Z,95.76
2023-11-11T12:26:43.615Z,95.83
2023-11-11T12:29:12.563Z,96.15
2023-11-11T12:31:49.224Z,95.54
2023-11-11T12:34:19.694Z,95.07
2023-11-11T12:36:48.419Z,94.61
2023-11-11T12:39:16.912Z,95.32
2023-11-11T12:41:48.395Z,95.67
2023-11-11T12:44:16.927Z,95.19
2023-11-11T12:46:45.576Z,94.95
2023-11-11T12:49:17.273Z,94.75
2023-11-11T12:51:45.237Z,94.99
2023-11-11T12:54:14.158Z,94.96
2023-11-11T12:56:53.755Z,95.21
2023-11-11T12:59:21.906Z,95.15
2023-11-11T13:01:51.439Z,95.39
2023-11-11T13:04:21.576Z,95.34
2023-11-11T13:06:50.688Z,95.19
2023-11-11T13:09:21.230Z,96.40
2023-11-11T13:11:50.136Z,94.12
2023-11-11T13:14:20.176Z,93.37
2023-11-11T13:16:51.849Z,90.62
2023-11-11T13:19:23.113Z,89.16
2023-11-11T13:21:50.943Z,90.85
2023-11-11T13:24:20.590Z,91.82
2023-11-11T13:26:48.424Z,93.25
2023-11-11T13:29:17.124Z,93.80
2023-11-11T13:31:47.541Z,94.28
2023-11-11T13:34:19.123Z,94.81
2023-11-11T13:36:48.816Z,93.51
2023-11-11T13:39:23.752Z,93.46
2023-11-11T13:41:52.465Z,93.33
2023-11-11T13:44:20.312Z,93.64
2023-11-11T13:46:48.684Z,94.33
2023-11-11T13:49:16.570Z,94.46
2023-11-11T13:51:46.347Z,95.00
2023-11-11T13:54:16.130Z,95.28
2023-11-11T13:56:44.949Z,94.64
2023-11-11T13:59:13.613Z,93.38
2023-11-11T14:01:43.694Z,93.55
2023-11-11T14:04:11.998Z,95.05
2023-11-11T14:06:40.030Z,93.26
2023-11-11T14:09:09.949Z,92.41
2023-11-11T14:11:39.120Z,92.41
2023-11-11T14:14:07.347Z,92.34
2023-11-11T14:16:35.437Z,92.64
2023-11-11T14:19:03.424Z,91.78
2023-11-11T14:21:34.272Z,91.60
2023-11-11T14:24:04.418Z,91.16
2023-11-11T14:26:32.681Z,91.44
2023-11-11T14:29:02.133Z,90.54
2023-11-11T14:31:33.502Z,89.93
2023-11-11T14:34:07.232Z,89.34
2023-11-11T14:36:39.708Z,89.47
2023-11-11T14:39:09.863Z,89.58
2023-11-11T14:41:38.617Z,89.51
2023-11-11T14:44:08.243Z,89.33
2023-11-11T14:46:38.371Z,88.05
2023-11-11T14:49:10.504Z,89.44
2023-11-11T14:51:38.726Z,88.38
2023-11-11T14:54:06.910Z,88.45
2023-11-11T14:56:36.015Z,89.09
2023-11-11T14:59:04.296Z,89.12
2023-11-11T15:01:33.841Z,89.34
2023-11-11T15:04:02.295Z,89.34
2023-11-11T15:06:33.590Z,90.62
2023-11-11T15:09:01.913Z,89.79
2023-11-11T15:11:29.739Z,90.63
2023-11-11T15:13:59.404Z,91.27
2023-11-11T15:16:30.761Z,89.80
2023-11-11T15:19:00.855Z,90.12
2023-11-11T15:21:28.833Z,91.36
2023-11-11T15:23:56.820Z,92.10
2023-11-11T15:26:24.908Z,92.44
2023-11-11T15:28:52.803Z,92.95
2023-11-11T15:31:27.783Z,93.16
2023-11-11T15:33:56.095Z,93.78
2023-11-11T15:36:27.238Z,93.93
2023-11-11T15:38:55.631Z,93.78
2023-11-11T15:41:23.677Z,93.77
2023-11-11T15:43:51.636Z,94.15
2023-11-11T15:46:20.370Z,93.90
2023-11-11T15:48:48.199Z,94.32
2023-11-11T15:51:22.794Z,94.67
2023-11-11T15:53:53.898Z,93.63
2023-11-11T15:56:21.964Z,94.41
2023-11-11T15:58:50.447Z,94.06
2023-11-11T16:01:19.842Z,94.19
2023-11-11T16:03:50.325Z,94.52
2023-11-11T16:06:18.371Z,94.18
2023-11-11T16:08:46.874Z,94.34
2023-11-11T16:11:18.017Z,93.90
2023-11-11T16:13:45.983Z,94.36
2023-11-11T16:16:17.941Z,94.01
2023-11-11T16:18:45.810Z,92.81
2023-11-11T16:21:20.373Z,93.15
2023-11-11T16:23:48.258Z,94.03
2023-11-11T16:26:17.781Z,93.90
2023-11-11T16:28:45.573Z,93.34
2023-11-11T16:31:21.209Z,93.13
2023-11-11T16:33:49.178Z,93.08
2023-11-11T16:36:17.048Z,93.17
2023-11-11T16:38:46.013Z,92.54
2023-11-11T16:41:13.919Z,92.44
2023-11-11T16:43:43.467Z,92.70
2023-11-11T16:46:11.532Z,92.45
2023-11-11T16:48:39.817Z,92.26
2023-11-11T16:51:08.453Z,92.21
2023-11-11T16:53:36.373Z,92.07
2023-11-11T16:56:07.195Z,92.22
2023-11-11T16:58:37.012Z,92.37
2023-11-11T17:01:07.879Z,92.32
2023-11-11T17:03:38.548Z,91.69
2023-11-11T17:06:09.893Z,91.38
2023-11-11T17:08:38.358Z,91.67
2023-11-11T17:11:09.033Z,91.63
2023-11-11T17:13:38.664Z,91.23
2023-11-11T17:16:10.215Z,91.17
2023-11-11T17:18:38.315Z,91.52
2023-11-11T17:21:07.044Z,91.85
2023-11-11T17:23:34.924Z,91.87
2023-11-11T17:26:02.920Z,91.57
2023-11-11T17:28:32.480Z,91.79
2023-11-11T17:31:00.729Z,91.72
2023-11-11T17:33:38.257Z,91.46
2023-11-11T17:36:09.597Z,91.79
2023-11-11T17:38:39.817Z,90.71
2023-11-11T17:41:08.321Z,91.32
2023-11-11T17:43:36.174Z,91.89
2023-11-11T17:46:05.926Z,90.84
2023-11-11T17:48:36.512Z,91.48
2023-11-11T17:51:06.177Z,91.60
2023-11-11T17:53:34.334Z,91.78
2023-11-11T17:56:02.515Z,95.35
2023-11-11T17:58:30.745Z,92.67
2023-11-11T18:01:00.087Z,92.30
2023-11-11T18:03:27.957Z,91.94
2023-11-11T18:05:57.208Z,92.08
2023-11-11T18:08:25.018Z,91.26
2023-11-11T18:10:52.918Z,91.91
2023-11-11T18:13:22.614Z,92.42
2023-11-11T18:15:50.534Z,92.55
2023-11-11T18:18:18.679Z,93.21
2023-11-11T18:20:47.215Z,92.48
2023-11-11T18:23:16.403Z,94.59
2023-11-11T18:25:44.434Z,93.31
2023-11-11T18:28:13.647Z,92.73
2023-11-11T18:30:42.505Z,91.69
2023-11-11T18:33:12.509Z,92.41
2023-11-11T18:35:40.902Z,92.17
2023-11-11T18:38:08.843Z,91.44
2023-11-11T18:40:38.337Z,91.57
2023-11-11T18:43:06.531Z,91.69
2023-11-11T18:45:34.360Z,91.44
2023-11-11T18:48:02.539Z,91.41
2023-11-11T18:50:30.665Z,91.39
2023-11-11T18:52:58.701Z,91.36
2023-11-11T18:55:26.909Z,90.47
2023-11-11T18:57:56.701Z,90.34
2023-11-11T19:00:24.676Z,90.20
2023-11-11T19:02:53.606Z,89.98
2023-11-11T19:05:22.625Z,90.09
2023-11-11T19:07:50.604Z,90.01
2023-11-11T19:10:18.758Z,90.21
2023-11-11T19:12:46.551Z,89.70
2023-11-11T19:15:15.903Z,90.35
2023-11-11T19:17:44.028Z,90.41
2023-11-11T19:20:13.175Z,89.95
2023-11-11T19:22:41.146Z,89.39
2023-11-11T19:25:09.206Z,89.83
2023-11-11T19:27:37.612Z,89.42
2023-11-11T19:30:06.426Z,90.09
2023-11-11T19:32:35.560Z,90.20
2023-11-11T19:35:03.894Z,89.40
2023-11-11T19:37:31.829Z,89.36
2023-11-11T19:39:59.792Z,89.34
2023-11-11T19:42:27.564Z,88.85
2023-11-11T19:44:55.463Z,88.66
2023-11-11T19:47:23.370Z,89.81
2023-11-11T19:49:52.812Z,89.29
2023-11-11T19:52:20.932Z,89.36
2023-11-11T19:54:49.095Z,90.02
2023-11-11T19:57:17.173Z,89.54
2023-11-11T19:59:45.061Z,89.18
2023-11-11T20:02:13.024Z,89.59
2023-11-11T20:04:41.943Z,89.93
2023-11-11T20:07:11.184Z,91.13
2023-11-11T20:09:39.019Z,90.68
2023-11-11T20:12:06.557Z,90.39
2023-11-11T20:14:34.480Z,90.72
2023-11-11T20:17:04.768Z,91.24
2023-11-11T20:19:32.591Z,90.63
2023-11-11T20:22:00.453Z,90.98
2023-11-11T20:24:29.840Z,91.27
2023-11-11T20:26:57.661Z,91.46
2023-11-11T20:29:25.386Z,90.41
2023-11-11T20:31:53.367Z,91.47
2023-11-11T20:34:21.217Z,90.81
2023-11-11T20:36:49.033Z,90.63
2023-11-11T20:39:16.918Z,90.88
2023-11-11T20:41:46.107Z,90.42
2023-11-11T20:44:14.003Z,90.47
2023-11-11T20:46:42.841Z,90.36
2023-11-11T20:49:10.664Z,91.44
2023-11-11T20:51:44.791Z,90.60
2023-11-11T20:54:14.019Z,90.68
2023-11-11T20:56:42.189Z,90.76
2023-11-11T20:59:11.454Z,90.68
2023-11-11T21:01:39.406Z,90.02
2023-11-11T21:04:07.681Z,90.40
2023-11-11T21:06:35.504Z,90.52
2023-11-11T21:09:04.546Z,90.10
2023-11-11T21:11:32.376Z,89.66
2023-11-11T21:14:00.364Z,90.29
2023-11-11T21:16:29.671Z,89.99
2023-11-11T21:18:57.529Z,89.96
2023-11-11T21:21:25.375Z,89.71
2023-11-11T21:23:53.480Z,89.58
2023-11-11T21:26:22.105Z,88.88
2023-11-11T21:28:50.340Z,90.04
2023-11-11T21:31:18.159Z,89.63
2023-11-11T21:33:48.147Z,90.05
2023-11-11T21:36:15.995Z,89.59
2023-11-11T21:38:43.944Z,89.66
2023-11-11T21:41:12.365Z,90.05
2023-11-11T21:43:40.295Z,89.99
2023-11-11T21:46:08.076Z,89.70
2023-11-11T21:48:38.182Z,90.73
2023-11-11T21:51:09.414Z,90.38
2023-11-11T21:53:37.236Z,91.21
2023-11-11T21:56:06.052Z,91.19
2023-11-11T21:58:34.048Z,91.07
2023-11-11T22:01:01.886Z,91.88
2023-11-11T22:03:29.800Z,91.77
2023-11-11T22:05:58.841Z,91.49
2023-11-11T22:08:28.416Z,91.49
2023-11-11T22:10:57.435Z,91.04
2023-11-11T22:13:25.620Z,91.38
2023-11-11T22:15:53.584Z,91.61
2023-11-11T22:18:40.406Z,92.04
2023-11-11T22:21:08.416Z,90.84
2023-11-11T22:23:37.578Z,90.89
2023-11-11T22:26:06.929Z,91.54
2023-11-11T22:28:35.421Z,91.01
2023-11-11T22:31:03.452Z,91.14
2023-11-11T22:33:31.401Z,91.16
2023-11-11T22:35:59.315Z,91.32
2023-11-11T22:38:27.192Z,90.54
2023-11-11T22:40:56.570Z,91.00
2023-11-11T22:43:42.100Z,91.56
2023-11-11T22:46:10.068Z,90.47
2023-11-11T22:48:39.179Z,91.16
2023-11-11T22:51:06.971Z,91.67
2023-11-11T22:53:34.836Z,91.89
2023-11-11T22:56:04.351Z,91.90
2023-11-11T22:58:33.616Z,91.74
2023-11-11T23:01:01.517Z,91.58
2023-11-11T23:03:31.066Z,91.52
2023-11-11T23:05:59.327Z,91.55
2023-11-11T23:08:27.751Z,91.00
2023-11-11T23:10:55.677Z,90.61
2023-11-11T23:13:25.255Z,90.84
2023-11-11T23:15:54.680Z,90.95
2023-11-11T23:18:23.062Z,90.16
2023-11-11T23:20:52.684Z,89.62
2023-11-11T23:23:25.061Z,89.41
2023-11-11T23:25:52.870Z,89.48
2023-11-11T23:28:21.853Z,89.93
2023-11-11T23:30:52.399Z,90.14
2023-11-11T23:33:20.192Z,89.49
2023-11-11T23:35:48.870Z,90.12
2023-11-11T23:38:16.906Z,90.39
2023-11-11T23:40:44.912Z,89.91
2023-11-11T23:43:13.823Z,91.19
2023-11-11T23:45:41.666Z,91.05
2023-11-11T23:48:12.228Z,91.58
2023-11-11T23:50:41.009Z,91.32
2023-11-11T23:53:08.911Z,91.56
2023-11-11T23:55:36.770Z,90.74
2023-11-11T23:58:04.659Z,91.48
